createdAt,value
2023-01-20T00:00:08.237Z,-1.40
2023-01-20T00:06:14.335Z,-1.20
2023-01-20T00:12:16.118Z,-1.10
2023-01-20T00:18:17.909Z,-0.90
2023-01-20T00:24:19.798Z,-0.90
2023-01-20T00:30:22.083Z,-0.80
2023-01-20T00:36:25.210Z,-0.80
2023-01-20T00:42:27.039Z,-0.70
2023-01-20T00:48:28.865Z,-0.60
2023-01-20T00:54:30.678Z,-0.60
2023-01-20T01:00:32.472Z,-0.50
2023-01-20T01:06:34.494Z,-0.40
2023-01-20T01:12:36.438Z,-0.30
2023-01-20T01:18:38.373Z,-0.20
2023-01-20T01:24:40.226Z,-0.20
2023-01-20T01:30:42.284Z,-0.20
2023-01-20T01:36:44.228Z,-0.10
2023-01-20T01:42:46.005Z,-0.10
2023-01-20T01:48:47.929Z,0.00
2023-01-20T01:54:50.813Z,0.10
2023-01-20T02:00:53.040Z,0.10
2023-01-20T02:07:08.837Z,0.20
2023-01-20T02:13:11.208Z,0.20
2023-01-20T02:19:27.160Z,0.20
2023-01-20T02:26:16.683Z,0.20
2023-01-20T02:32:30.551Z,0.30
2023-01-20T02:38:57.748Z,0.30
2023-01-20T02:45:17.031Z,0.30
2023-01-20T02:51:31.695Z,0.30
2023-01-20T02:57:56.575Z,0.30
2023-01-20T03:04:01.097Z,0.30
2023-01-20T03:10:07.233Z,0.30
2023-01-20T03:16:14.873Z,0.30
2023-01-20T03:22:17.189Z,0.30
2023-01-20T03:28:18.971Z,0.30
2023-01-20T03:34:23.116Z,0.30
2023-01-20T03:40:26.841Z,0.30
2023-01-20T03:46:37.179Z,0.30
2023-01-20T03:53:12.452Z,0.30
2023-01-20T03:59:16.012Z,0.30
2023-01-20T04:05:17.950Z,0.30
2023-01-20T04:11:19.967Z,0.20
2023-01-20T04:17:26.300Z,-0.10
2023-01-20T04:23:37.221Z,-0.50
2023-01-20T04:29:39.115Z,-1.00
2023-01-20T04:35:40.919Z,-1.40
2023-01-20T04:41:42.733Z,-1.80
2023-01-20T04:47:45.084Z,-2.10
2023-01-20T04:53:46.991Z,-2.40
2023-01-20T04:59:49.934Z,-2.40
2023-01-20T05:05:55.602Z,-2.20
2023-01-20T05:11:57.437Z,-2.20
2023-01-20T05:17:59.214Z,-2.30
2023-01-20T05:24:01.012Z,-2.40
2023-01-20T05:30:04.859Z,-2.50
2023-01-20T05:36:07.702Z,-2.60
2023-01-20T05:42:09.546Z,-2.70
2023-01-20T05:48:11.344Z,-2.40
2023-01-20T05:54:13.143Z,-2.20
2023-01-20T06:00:15.306Z,-1.90
2023-01-20T06:06:18.584Z,-1.90
2023-01-20T06:12:20.358Z,-2.00
2023-01-20T06:18:23.148Z,-2.20
2023-01-20T06:24:24.911Z,-2.20
2023-01-20T06:30:26.712Z,-2.30
2023-01-20T06:36:28.825Z,-2.30
2023-01-20T06:42:32.020Z,-2.60
2023-01-20T06:48:33.968Z,-2.70
2023-01-20T06:54:35.813Z,-2.80
2023-01-20T07:00:37.664Z,-3.00
2023-01-20T07:06:40.855Z,-3.10
2023-01-20T07:12:42.798Z,-3.40
2023-01-20T07:18:48.426Z,-3.70
2023-01-20T07:24:50.285Z,-3.70
2023-01-20T07:30:52.364Z,-3.60
2023-01-20T07:36:54.203Z,-3.40
2023-01-20T07:42:56.081Z,-3.20
2023-01-20T07:48:57.909Z,-3.20
2023-01-20T07:54:59.679Z,-3.30
2023-01-20T08:01:09.418Z,-3.50
2023-01-20T08:07:11.329Z,-3.60
2023-01-20T08:13:13.081Z,-3.60
2023-01-20T08:19:14.894Z,-3.50
2023-01-20T08:25:17.182Z,-3.40
2023-01-20T08:31:21.704Z,-3.30
2023-01-20T08:37:23.694Z,-3.00
2023-01-20T08:43:25.615Z,-2.70
2023-01-20T08:49:27.367Z,-2.40
2023-01-20T08:55:30.222Z,-2.10
2023-01-20T09:01:36.001Z,-1.90
2023-01-20T09:07:38.115Z,-1.60
2023-01-20T09:13:40.494Z,-1.40
2023-01-20T09:19:42.438Z,-1.20
2023-01-20T09:25:44.422Z,-0.90
2023-01-20T09:31:51.430Z,-0.60
2023-01-20T09:38:12.106Z,-0.30
2023-01-20T09:44:29.117Z,-0.10
2023-01-20T09:51:04.337Z,0.10
2023-01-20T09:57:08.169Z,0.20
2023-01-20T10:03:17.738Z,0.50
2023-01-20T10:09:28.488Z,0.80
2023-01-20T10:15:35.487Z,1.10
2023-01-20T10:21:45.228Z,1.20
2023-01-20T10:28:12.279Z,1.20
2023-01-20T10:34:19.952Z,1.30
2023-01-20T10:41:06.335Z,1.50
2023-01-20T10:47:13.776Z,1.90
2023-01-20T10:53:33.604Z,2.30
2023-01-20T10:59:42.540Z,2.50
2023-01-20T11:05:46.937Z,2.60
2023-01-20T11:11:48.763Z,2.90
2023-01-20T11:18:15.620Z,2.80
2023-01-20T11:24:42.956Z,2.80
2023-01-20T11:30:51.937Z,2.80
2023-01-20T11:37:10.061Z,2.90
2023-01-20T11:43:38.071Z,3.00
2023-01-20T11:49:39.909Z,3.20
2023-01-20T11:56:19.052Z,3.30
2023-01-20T12:02:24.845Z,3.20
2023-01-20T12:09:11.041Z,3.40
2023-01-20T12:15:21.042Z,3.70
2023-01-20T12:21:29.937Z,4.00
2023-01-20T12:27:32.470Z,4.10
2023-01-20T12:33:44.237Z,4.20
2023-01-20T12:39:58.048Z,4.20
2023-01-20T12:46:09.214Z,4.30
2023-01-20T12:52:28.035Z,4.30
2023-01-20T12:58:56.590Z,4.50
2023-01-20T13:05:29.758Z,4.70
2023-01-20T13:12:03.028Z,4.80
2023-01-20T13:18:27.748Z,4.60
2023-01-20T13:24:29.918Z,4.40
2023-01-20T13:30:43.100Z,4.00
2023-01-20T13:37:07.267Z,3.90
2023-01-20T13:43:27.237Z,3.80
2023-01-20T13:49:50.286Z,3.80
2023-01-20T13:55:57.915Z,3.70
2023-01-20T14:02:08.708Z,3.50
2023-01-20T14:08:15.187Z,3.40
2023-01-20T14:14:22.977Z,3.30
2023-01-20T14:20:26.677Z,3.10
2023-01-20T14:26:31.263Z,2.90
2023-01-20T14:32:36.540Z,2.80
2023-01-20T14:38:51.931Z,2.80
2023-01-20T14:44:58.614Z,2.70
2023-01-20T14:51:02.662Z,2.70
2023-01-20T14:57:31.808Z,2.50
2023-01-20T15:03:34.060Z,2.30
2023-01-20T15:09:36.131Z,2.10
2023-01-20T15:15:37.975Z,2.00
2023-01-20T15:21:46.655Z,1.90
2023-01-20T15:27:53.801Z,1.60
2023-01-20T15:33:55.581Z,1.10
2023-01-20T15:39:59.034Z,0.60
2023-01-20T15:46:00.882Z,0.10
2023-01-20T15:52:02.779Z,-0.30
2023-01-20T15:58:21.512Z,-0.70
2023-01-20T16:04:24.753Z,-1.00
2023-01-20T16:10:26.663Z,-1.30
2023-01-20T16:16:30.260Z,-1.50
2023-01-20T16:22:32.255Z,-1.80
2023-01-20T16:28:34.062Z,-1.90
2023-01-20T16:34:36.389Z,-1.90
2023-01-20T16:40:52.133Z,-1.80
2023-01-20T16:46:54.072Z,-1.60
2023-01-20T16:52:56.525Z,-1.40
2023-01-20T16:59:03.355Z,-1.10
2023-01-20T17:05:07.639Z,-0.90
2023-01-20T17:11:09.502Z,-0.70
2023-01-20T17:17:11.507Z,-0.50
2023-01-20T17:23:13.335Z,-0.40
2023-01-20T17:29:15.262Z,-0.40
2023-01-20T17:35:17.345Z,-0.60
2023-01-20T17:41:19.169Z,-1.00
2023-01-20T17:47:21.115Z,-1.40
2023-01-20T17:53:22.883Z,-1.70
2023-01-20T17:59:26.229Z,-2.00
2023-01-20T18:05:28.207Z,-2.30
2023-01-20T18:11:32.629Z,-2.60
2023-01-20T18:17:34.520Z,-2.80
2023-01-20T18:23:39.061Z,-3.00
2023-01-20T18:29:41.157Z,-3.20
2023-01-20T18:35:42.989Z,-3.40
2023-01-20T18:41:44.993Z,-3.50
2023-01-20T18:47:48.707Z,-3.50
2023-01-20T18:53:57.174Z,-3.70
2023-01-20T18:59:58.997Z,-3.80
2023-01-20T19:06:08.142Z,-3.90
2023-01-20T19:12:10.102Z,-3.90
2023-01-20T19:18:12.090Z,-4.00
2023-01-20T19:24:20.073Z,-4.10
2023-01-20T19:30:22.430Z,-4.10
2023-01-20T19:36:24.888Z,-4.10
2023-01-20T19:42:26.689Z,-4.10
2023-01-20T19:48:28.710Z,-4.20
2023-01-20T19:54:30.991Z,-4.20
2023-01-20T20:00:33.153Z,-4.30
2023-01-20T20:06:38.024Z,-4.40
2023-01-20T20:12:39.853Z,-4.60
2023-01-20T20:18:41.793Z,-4.60
2023-01-20T20:24:43.993Z,-4.60
2023-01-20T20:30:45.965Z,-4.50
2023-01-20T20:36:48.106Z,-4.60
2023-01-20T20:42:49.928Z,-4.80
2023-01-20T20:48:56.527Z,-4.90
2023-01-20T20:54:58.504Z,-5.00
2023-01-20T21:01:08.943Z,-5.00
2023-01-20T21:07:11.999Z,-5.20
2023-01-20T21:13:13.799Z,-5.20
2023-01-20T21:19:16.129Z,-5.30
2023-01-20T21:25:17.979Z,-5.30
2023-01-20T21:31:22.788Z,-5.30
2023-01-20T21:37:24.916Z,-5.20
2023-01-20T21:43:52.923Z,-5.30
2023-01-20T21:50:27.110Z,-5.30
2023-01-20T21:56:29.035Z,-5.30
2023-01-20T22:02:31.170Z,-5.40
2023-01-20T22:08:33.043Z,-5.40
2023-01-20T22:14:34.904Z,-5.50
2023-01-20T22:20:36.726Z,-5.50
2023-01-20T22:26:38.803Z,-5.60
2023-01-20T22:32:40.641Z,-5.70
2023-01-20T22:38:43.143Z,-5.70
2023-01-20T22:44:44.974Z,-5.70
2023-01-20T22:50:46.820Z,-5.80
2023-01-20T22:56:48.679Z,-5.90
2023-01-20T23:02:50.505Z,-5.90
2023-01-20T23:08:52.377Z,-5.90
2023-01-20T23:15:00.533Z,-5.90
2023-01-20T23:21:02.757Z,-6.00
2023-01-20T23:27:04.605Z,-6.00
2023-01-20T23:33:07.526Z,-6.10
2023-01-20T23:39:09.722Z,-6.10
2023-01-20T23:45:12.470Z,-6.20
2023-01-20T23:51:15.104Z,-6.30
2023-01-20T23:57:17.299Z,-6.40
